CYNL

METAR CYNL 161000Z AUTO 00000KT SCT024 05/03 A3009 RMK AO1 PRESRR SLP196
METAR
LOCATION
CYNL
DATE - TIME
161000Z
WIND
CALM WIND
VISIBILITY
RUNWAY VISUAL RANGE
NOT REPORTED
WEATHER
CLOUDINESS
SCT024
TEMP / DEWPOINT
5 ºC / 3 ºC
ALTIMETER
30.09 in. Hg
RECENT WEATHER
NOT REPORTED
WIND SHEAR
NOT REPORTED
REMARKS
RMK AO1 PRESRR SLP196
SEA LEVEL PRESSURE: hPa

CYNL

SPECI CYNL 160902Z AUTO 34004KT SCT023 06/03 A3006 RMK AO1 PRESRR SLP184
SPECI
LOCATION
CYNL
DATE - TIME
160902Z
WIND
340 TRUE @ 4 KNOTS
VISIBILITY
RUNWAY VISUAL RANGE
NOT REPORTED
WEATHER
CLOUDINESS
SCT023
TEMP / DEWPOINT
6 ºC / 3 ºC
ALTIMETER
30.06 in. Hg
RECENT WEATHER
NOT REPORTED
WIND SHEAR
NOT REPORTED
REMARKS
RMK AO1 PRESRR SLP184
SEA LEVEL PRESSURE: hPa

CYNL

METAR CYNL 160900Z AUTO 35004KT BKN023 06/03 A3006 RMK AO1 PRESRR SLP184
METAR
LOCATION
CYNL
DATE - TIME
160900Z
WIND
350 TRUE @ 4 KNOTS
VISIBILITY
RUNWAY VISUAL RANGE
NOT REPORTED
WEATHER
CLOUDINESS
BKN023
TEMP / DEWPOINT
6 ºC / 3 ºC
ALTIMETER
30.06 in. Hg
RECENT WEATHER
NOT REPORTED
WIND SHEAR
NOT REPORTED
REMARKS
RMK AO1 PRESRR SLP184
SEA LEVEL PRESSURE: hPa

Your time UTC time
 
 
Weather data provided by AXYS Technologies Inc., www.axystechnologies.com
 
Station History